sensor_id;sensor_type;location;lat;lon;timestamp;P1;durP1;ratioP1;P2;durP2;ratioP2
5967;SDS011;3010;51.028;4.170;2022-07-05T00:00:57;6.30;;;5.93;;
5967;SDS011;3010;51.028;4.170;2022-07-05T00:03:23;7.17;;;6.47;;
5967;SDS011;3010;51.028;4.170;2022-07-05T00:05:50;6.97;;;6.37;;
5967;SDS011;3010;51.028;4.170;2022-07-05T00:08:16;7.73;;;5.47;;
5967;SDS011;3010;51.028;4.170;2022-07-05T00:10:43;6.23;;;5.67;;
5967;SDS011;3010;51.028;4.170;2022-07-05T00:13:10;6.30;;;5.80;;
5967;SDS011;3010;51.028;4.170;2022-07-05T00:15:36;8.23;;;5.60;;
5967;SDS011;3010;51.028;4.170;2022-07-05T00:18:03;7.30;;;5.97;;
5967;SDS011;3010;51.028;4.170;2022-07-05T00:20:29;5.90;;;5.30;;
5967;SDS011;3010;51.028;4.170;2022-07-05T00:22:56;5.90;;;5.57;;
5967;SDS011;3010;51.028;4.170;2022-07-05T00:25:22;8.20;;;5.27;;
5967;SDS011;3010;51.028;4.170;2022-07-05T00:27:49;10.13;;;6.50;;
5967;SDS011;3010;51.028;4.170;2022-07-05T00:30:16;8.33;;;5.77;;
5967;SDS011;3010;51.028;4.170;2022-07-05T00:32:42;6.23;;;5.73;;
5967;SDS011;3010;51.028;4.170;2022-07-05T00:35:09;7.73;;;5.33;;
5967;SDS011;3010;51.028;4.170;2022-07-05T00:37:35;6.20;;;5.57;;
5967;SDS011;3010;51.028;4.170;2022-07-05T00:40:02;7.33;;;5.93;;
5967;SDS011;3010;51.028;4.170;2022-07-05T00:42:29;6.43;;;5.97;;
5967;SDS011;3010;51.028;4.170;2022-07-05T00:44:55;6.27;;;5.87;;
5967;SDS011;3010;51.028;4.170;2022-07-05T00:47:22;6.40;;;5.90;;
5967;SDS011;3010;51.028;4.170;2022-07-05T00:49:48;7.43;;;6.73;;
5967;SDS011;3010;51.028;4.170;2022-07-05T00:52:15;6.63;;;5.70;;
5967;SDS011;3010;51.028;4.170;2022-07-05T00:54:42;7.47;;;6.83;;
5967;SDS011;3010;51.028;4.170;2022-07-05T00:57:08;7.33;;;6.70;;
5967;SDS011;3010;51.028;4.170;2022-07-05T00:59:35;8.00;;;6.33;;
5967;SDS011;3010;51.028;4.170;2022-07-05T01:02:01;6.43;;;6.03;;
5967;SDS011;3010;51.028;4.170;2022-07-05T01:04:28;10.57;;;6.93;;
5967;SDS011;3010;51.028;4.170;2022-07-05T01:06:55;7.10;;;6.60;;
5967;SDS011;3010;51.028;4.170;2022-07-05T01:09:21;7.07;;;6.47;;
5967;SDS011;3010;51.028;4.170;2022-07-05T01:11:48;6.73;;;6.27;;
5967;SDS011;3010;51.028;4.170;2022-07-05T01:14:18;7.33;;;6.77;;
5967;SDS011;3010;51.028;4.170;2022-07-05T01:16:47;7.83;;;7.30;;
5967;SDS011;3010;51.028;4.170;2022-07-05T01:19:13;7.90;;;6.93;;
5967;SDS011;3010;51.028;4.170;2022-07-05T01:21:40;7.57;;;6.77;;
5967;SDS011;3010;51.028;4.170;2022-07-05T01:24:06;7.47;;;6.87;;
5967;SDS011;3010;51.028;4.170;2022-07-05T01:26:33;8.40;;;7.70;;
5967;SDS011;3010;51.028;4.170;2022-07-05T01:28:59;7.47;;;6.60;;
5967;SDS011;3010;51.028;4.170;2022-07-05T01:31:26;7.57;;;6.97;;
5967;SDS011;3010;51.028;4.170;2022-07-05T01:33:53;8.73;;;7.43;;
5967;SDS011;3010;51.028;4.170;2022-07-05T01:36:19;7.83;;;6.97;;
5967;SDS011;3010;51.028;4.170;2022-07-05T01:38:46;7.50;;;6.80;;
5967;SDS011;3010;51.028;4.170;2022-07-05T01:41:12;7.30;;;6.53;;
5967;SDS011;3010;51.028;4.170;2022-07-05T01:43:39;9.03;;;8.13;;
5967;SDS011;3010;51.028;4.170;2022-07-05T01:46:06;8.77;;;8.07;;
5967;SDS011;3010;51.028;4.170;2022-07-05T01:48:33;8.07;;;7.37;;
5967;SDS011;3010;51.028;4.170;2022-07-05T01:53:44;8.30;;;7.55;;
5967;SDS011;3010;51.028;4.170;2022-07-05T01:56:11;7.50;;;6.90;;
5967;SDS011;3010;51.028;4.170;2022-07-05T01:58:37;6.50;;;6.00;;
5967;SDS011;3010;51.028;4.170;2022-07-05T02:01:04;6.70;;;6.10;;
5967;SDS011;3010;51.028;4.170;2022-07-05T02:03:30;6.83;;;6.43;;
5967;SDS011;3010;51.028;4.170;2022-07-05T02:05:57;7.23;;;6.63;;
5967;SDS011;3010;51.028;4.170;2022-07-05T02:08:28;6.80;;;6.27;;
5967;SDS011;3010;51.028;4.170;2022-07-05T02:10:50;7.10;;;6.37;;
5967;SDS011;3010;51.028;4.170;2022-07-05T02:13:17;8.40;;;7.63;;
5967;SDS011;3010;51.028;4.170;2022-07-05T02:15:43;8.30;;;7.50;;
5967;SDS011;3010;51.028;4.170;2022-07-05T02:18:10;7.60;;;6.97;;
5967;SDS011;3010;51.028;4.170;2022-07-05T02:20:37;7.20;;;6.63;;
5967;SDS011;3010;51.028;4.170;2022-07-05T02:23:03;8.67;;;6.70;;
5967;SDS011;3010;51.028;4.170;2022-07-05T02:25:30;7.67;;;6.97;;
5967;SDS011;3010;51.028;4.170;2022-07-05T02:27:56;8.07;;;7.00;;
5967;SDS011;3010;51.028;4.170;2022-07-05T02:30:23;7.63;;;6.93;;
5967;SDS011;3010;51.028;4.170;2022-07-05T02:32:49;7.60;;;7.00;;
5967;SDS011;3010;51.028;4.170;2022-07-05T02:35:16;8.00;;;6.50;;
5967;SDS011;3010;51.028;4.170;2022-07-05T02:37:43;9.47;;;6.83;;
5967;SDS011;3010;51.028;4.170;2022-07-05T02:40:10;8.83;;;6.90;;
5967;SDS011;3010;51.028;4.170;2022-07-05T02:42:36;7.83;;;7.23;;
5967;SDS011;3010;51.028;4.170;2022-07-05T02:45:02;8.17;;;7.43;;
5967;SDS011;3010;51.028;4.170;2022-07-05T02:47:29;11.00;;;7.57;;
5967;SDS011;3010;51.028;4.170;2022-07-05T02:49:56;9.33;;;7.33;;
5967;SDS011;3010;51.028;4.170;2022-07-05T02:52:22;8.33;;;7.63;;
5967;SDS011;3010;51.028;4.170;2022-07-05T02:54:49;7.83;;;7.10;;
5967;SDS011;3010;51.028;4.170;2022-07-05T02:57:15;8.37;;;7.67;;
5967;SDS011;3010;51.028;4.170;2022-07-05T02:59:42;7.57;;;6.97;;
5967;SDS011;3010;51.028;4.170;2022-07-05T03:02:08;8.40;;;7.60;;
5967;SDS011;3010;51.028;4.170;2022-07-05T03:04:35;13.73;;;7.63;;
5967;SDS011;3010;51.028;4.170;2022-07-05T03:07:02;10.40;;;6.87;;
5967;SDS011;3010;51.028;4.170;2022-07-05T03:09:28;7.90;;;6.87;;
5967;SDS011;3010;51.028;4.170;2022-07-05T03:11:55;14.83;;;6.90;;
5967;SDS011;3010;51.028;4.170;2022-07-05T03:14:21;8.63;;;7.73;;
5967;SDS011;3010;51.028;4.170;2022-07-05T03:16:48;7.73;;;7.17;;
5967;SDS011;3010;51.028;4.170;2022-07-05T03:19:15;11.90;;;8.27;;
5967;SDS011;3010;51.028;4.170;2022-07-05T03:21:41;9.47;;;7.77;;
5967;SDS011;3010;51.028;4.170;2022-07-05T03:24:08;7.30;;;6.60;;
5967;SDS011;3010;51.028;4.170;2022-07-05T03:26:34;7.47;;;6.77;;
5967;SDS011;3010;51.028;4.170;2022-07-05T03:29:01;7.17;;;6.53;;
5967;SDS011;3010;51.028;4.170;2022-07-05T03:31:27;7.63;;;6.83;;
5967;SDS011;3010;51.028;4.170;2022-07-05T03:33:54;7.13;;;6.53;;
5967;SDS011;3010;51.028;4.170;2022-07-05T03:36:21;10.80;;;7.60;;
5967;SDS011;3010;51.028;4.170;2022-07-05T03:38:47;8.17;;;7.07;;
5967;SDS011;3010;51.028;4.170;2022-07-05T03:41:14;8.43;;;7.63;;
5967;SDS011;3010;51.028;4.170;2022-07-05T03:43:40;8.90;;;7.60;;
5967;SDS011;3010;51.028;4.170;2022-07-05T03:46:07;8.70;;;7.87;;
5967;SDS011;3010;51.028;4.170;2022-07-05T03:48:34;12.40;;;8.57;;
5967;SDS011;3010;51.028;4.170;2022-07-05T03:51:00;10.67;;;8.13;;
5967;SDS011;3010;51.028;4.170;2022-07-05T03:53:27;10.27;;;8.33;;
5967;SDS011;3010;51.028;4.170;2022-07-05T03:55:53;11.43;;;7.93;;
5967;SDS011;3010;51.028;4.170;2022-07-05T03:58:20;16.80;;;8.60;;
5967;SDS011;3010;51.028;4.170;2022-07-05T04:00:47;8.70;;;7.90;;
5967;SDS011;3010;51.028;4.170;2022-07-05T04:03:13;15.07;;;8.00;;
5967;SDS011;3010;51.028;4.170;2022-07-05T04:05:40;10.93;;;7.77;;
5967;SDS011;3010;51.028;4.170;2022-07-05T04:08:06;11.43;;;8.13;;
5967;SDS011;3010;51.028;4.170;2022-07-05T04:10:33;9.80;;;8.33;;
5967;SDS011;3010;51.028;4.170;2022-07-05T04:12:59;9.37;;;8.07;;
5967;SDS011;3010;51.028;4.170;2022-07-05T04:15:26;10.93;;;8.03;;
5967;SDS011;3010;51.028;4.170;2022-07-05T04:17:53;9.97;;;8.77;;
5967;SDS011;3010;51.028;4.170;2022-07-05T04:20:20;11.73;;;8.27;;
5967;SDS011;3010;51.028;4.170;2022-07-05T04:22:46;8.73;;;7.90;;
5967;SDS011;3010;51.028;4.170;2022-07-05T04:25:12;9.07;;;8.30;;
5967;SDS011;3010;51.028;4.170;2022-07-05T04:27:42;8.43;;;7.83;;
5967;SDS011;3010;51.028;4.170;2022-07-05T04:30:09;11.33;;;8.67;;
5967;SDS011;3010;51.028;4.170;2022-07-05T04:32:35;10.00;;;8.53;;
5967;SDS011;3010;51.028;4.170;2022-07-05T04:35:02;9.10;;;8.30;;
5967;SDS011;3010;51.028;4.170;2022-07-05T04:37:28;9.83;;;8.13;;
5967;SDS011;3010;51.028;4.170;2022-07-05T04:39:55;7.90;;;7.30;;
5967;SDS011;3010;51.028;4.170;2022-07-05T04:42:22;8.07;;;7.10;;
5967;SDS011;3010;51.028;4.170;2022-07-05T04:44:48;8.53;;;7.73;;
5967;SDS011;3010;51.028;4.170;2022-07-05T04:47:15;7.93;;;6.97;;
5967;SDS011;3010;51.028;4.170;2022-07-05T04:49:41;8.20;;;7.40;;
5967;SDS011;3010;51.028;4.170;2022-07-05T04:52:08;8.10;;;7.30;;
5967;SDS011;3010;51.028;4.170;2022-07-05T04:54:35;9.00;;;7.03;;
5967;SDS011;3010;51.028;4.170;2022-07-05T04:57:01;7.77;;;6.93;;
5967;SDS011;3010;51.028;4.170;2022-07-05T04:59:28;7.67;;;6.87;;
5967;SDS011;3010;51.028;4.170;2022-07-05T05:01:54;10.30;;;7.53;;
5967;SDS011;3010;51.028;4.170;2022-07-05T05:04:22;10.43;;;7.07;;
5967;SDS011;3010;51.028;4.170;2022-07-05T05:06:48;6.87;;;6.20;;
5967;SDS011;3010;51.028;4.170;2022-07-05T05:09:15;7.30;;;6.70;;
5967;SDS011;3010;51.028;4.170;2022-07-05T05:11:41;7.63;;;6.93;;
5967;SDS011;3010;51.028;4.170;2022-07-05T05:14:08;7.77;;;6.97;;
5967;SDS011;3010;51.028;4.170;2022-07-05T05:16:34;9.90;;;6.77;;
5967;SDS011;3010;51.028;4.170;2022-07-05T05:19:01;8.60;;;6.90;;
5967;SDS011;3010;51.028;4.170;2022-07-05T05:21:28;7.93;;;7.17;;
5967;SDS011;3010;51.028;4.170;2022-07-05T05:23:54;7.73;;;6.77;;
5967;SDS011;3010;51.028;4.170;2022-07-05T05:26:21;8.17;;;6.53;;
5967;SDS011;3010;51.028;4.170;2022-07-05T05:28:47;7.07;;;6.37;;
5967;SDS011;3010;51.028;4.170;2022-07-05T05:31:14;7.40;;;6.70;;
5967;SDS011;3010;51.028;4.170;2022-07-05T05:33:40;7.13;;;6.43;;
5967;SDS011;3010;51.028;4.170;2022-07-05T05:36:07;7.80;;;6.50;;
5967;SDS011;3010;51.028;4.170;2022-07-05T05:38:34;7.00;;;6.40;;
5967;SDS011;3010;51.028;4.170;2022-07-05T05:41:00;10.17;;;6.30;;
5967;SDS011;3010;51.028;4.170;2022-07-05T05:43:27;11.63;;;6.73;;
5967;SDS011;3010;51.028;4.170;2022-07-05T05:45:53;7.10;;;6.40;;
5967;SDS011;3010;51.028;4.170;2022-07-05T05:48:20;7.30;;;6.60;;
5967;SDS011;3010;51.028;4.170;2022-07-05T05:50:47;8.87;;;6.87;;
5967;SDS011;3010;51.028;4.170;2022-07-05T05:53:13;12.30;;;7.70;;
5967;SDS011;3010;51.028;4.170;2022-07-05T05:55:40;9.27;;;7.40;;
5967;SDS011;3010;51.028;4.170;2022-07-05T06:00:44;11.30;;;6.33;;
5967;SDS011;3010;51.028;4.170;2022-07-05T06:03:10;10.70;;;6.57;;
5967;SDS011;3010;51.028;4.170;2022-07-05T06:05:37;10.00;;;6.47;;
5967;SDS011;3010;51.028;4.170;2022-07-05T06:08:04;10.93;;;6.83;;
5967;SDS011;3010;51.028;4.170;2022-07-05T06:10:31;11.43;;;6.77;;
5967;SDS011;3010;51.028;4.170;2022-07-05T06:12:57;11.37;;;7.00;;
5967;SDS011;3010;51.028;4.170;2022-07-05T06:15:23;12.00;;;7.20;;
5967;SDS011;3010;51.028;4.170;2022-07-05T06:17:50;7.43;;;6.20;;
5967;SDS011;3010;51.028;4.170;2022-07-05T06:20:18;12.80;;;6.27;;
5967;SDS011;3010;51.028;4.170;2022-07-05T06:22:43;11.70;;;7.03;;
5967;SDS011;3010;51.028;4.170;2022-07-05T06:25:10;11.43;;;7.23;;
5967;SDS011;3010;51.028;4.170;2022-07-05T06:27:40;11.47;;;6.63;;
5967;SDS011;3010;51.028;4.170;2022-07-05T06:30:09;10.73;;;6.77;;
5967;SDS011;3010;51.028;4.170;2022-07-05T06:32:35;9.70;;;7.40;;
5967;SDS011;3010;51.028;4.170;2022-07-05T06:35:02;11.63;;;7.07;;
5967;SDS011;3010;51.028;4.170;2022-07-05T06:37:39;10.47;;;6.93;;
5967;SDS011;3010;51.028;4.170;2022-07-05T06:39:55;9.77;;;6.50;;
5967;SDS011;3010;51.028;4.170;2022-07-05T06:42:21;10.73;;;6.70;;
5967;SDS011;3010;51.028;4.170;2022-07-05T06:44:48;12.00;;;6.87;;
5967;SDS011;3010;51.028;4.170;2022-07-05T06:47:15;11.35;;;6.80;;
5967;SDS011;3010;51.028;4.170;2022-07-05T06:49:41;12.37;;;6.40;;
5967;SDS011;3010;51.028;4.170;2022-07-05T06:52:08;9.20;;;6.40;;
5967;SDS011;3010;51.028;4.170;2022-07-05T06:54:34;10.82;;;6.37;;
5967;SDS011;3010;51.028;4.170;2022-07-05T06:57:01;12.18;;;6.20;;
5967;SDS011;3010;51.028;4.170;2022-07-05T06:59:27;17.40;;;5.40;;
5967;SDS011;3010;51.028;4.170;2022-07-05T07:01:54;8.85;;;5.95;;
5967;SDS011;3010;51.028;4.170;2022-07-05T07:04:21;11.43;;;5.40;;
5967;SDS011;3010;51.028;4.170;2022-07-05T07:06:47;6.83;;;5.67;;
5967;SDS011;3010;51.028;4.170;2022-07-05T07:09:14;9.37;;;5.87;;
5967;SDS011;3010;51.028;4.170;2022-07-05T07:11:43;10.40;;;6.03;;
5967;SDS011;3010;51.028;4.170;2022-07-05T07:14:10;11.05;;;5.90;;
5967;SDS011;3010;51.028;4.170;2022-07-05T07:16:36;6.07;;;5.13;;
5967;SDS011;3010;51.028;4.170;2022-07-05T07:19:03;11.37;;;5.23;;
5967;SDS011;3010;51.028;4.170;2022-07-05T07:21:30;10.20;;;5.53;;
5967;SDS011;3010;51.028;4.170;2022-07-05T07:23:56;8.67;;;4.80;;
5967;SDS011;3010;51.028;4.170;2022-07-05T07:26:23;9.60;;;4.60;;
5967;SDS011;3010;51.028;4.170;2022-07-05T07:28:49;13.20;;;5.17;;
5967;SDS011;3010;51.028;4.170;2022-07-05T07:31:16;7.33;;;4.77;;
5967;SDS011;3010;51.028;4.170;2022-07-05T07:33:42;12.23;;;4.53;;
5967;SDS011;3010;51.028;4.170;2022-07-05T07:36:09;7.50;;;4.73;;
5967;SDS011;3010;51.028;4.170;2022-07-05T07:38:36;12.33;;;4.40;;
5967;SDS011;3010;51.028;4.170;2022-07-05T07:41:02;12.43;;;4.00;;
5967;SDS011;3010;51.028;4.170;2022-07-05T07:43:29;9.15;;;4.20;;
5967;SDS011;3010;51.028;4.170;2022-07-05T07:45:55;8.47;;;3.83;;
5967;SDS011;3010;51.028;4.170;2022-07-05T07:48:22;11.50;;;4.15;;
5967;SDS011;3010;51.028;4.170;2022-07-05T07:50:49;6.73;;;4.27;;
5967;SDS011;3010;51.028;4.170;2022-07-05T07:53:15;7.67;;;4.00;;
5967;SDS011;3010;51.028;4.170;2022-07-05T07:55:42;6.47;;;3.77;;
5967;SDS011;3010;51.028;4.170;2022-07-05T07:58:08;8.87;;;3.50;;
5967;SDS011;3010;51.028;4.170;2022-07-05T08:00:35;5.87;;;3.50;;
5967;SDS011;3010;51.028;4.170;2022-07-05T08:03:02;8.43;;;3.57;;
5967;SDS011;3010;51.028;4.170;2022-07-05T08:05:28;6.53;;;3.07;;
5967;SDS011;3010;51.028;4.170;2022-07-05T08:07:55;5.68;;;3.60;;
5967;SDS011;3010;51.028;4.170;2022-07-05T08:10:21;6.90;;;3.80;;
5967;SDS011;3010;51.028;4.170;2022-07-05T08:12:48;7.82;;;3.45;;
5967;SDS011;3010;51.028;4.170;2022-07-05T08:15:14;6.53;;;3.00;;
5967;SDS011;3010;51.028;4.170;2022-07-05T08:17:41;6.87;;;3.30;;
5967;SDS011;3010;51.028;4.170;2022-07-05T08:20:08;4.90;;;3.20;;
5967;SDS011;3010;51.028;4.170;2022-07-05T08:22:53;8.05;;;3.37;;
5967;SDS011;3010;51.028;4.170;2022-07-05T08:25:20;4.83;;;3.23;;
5967;SDS011;3010;51.028;4.170;2022-07-05T08:27:46;9.37;;;4.13;;
5967;SDS011;3010;51.028;4.170;2022-07-05T08:30:13;8.50;;;4.77;;
5967;SDS011;3010;51.028;4.170;2022-07-05T08:32:39;4.40;;;3.90;;
5967;SDS011;3010;51.028;4.170;2022-07-05T08:35:06;6.33;;;3.30;;
5967;SDS011;3010;51.028;4.170;2022-07-05T08:37:32;4.47;;;2.90;;
5967;SDS011;3010;51.028;4.170;2022-07-05T08:39:59;4.37;;;2.73;;
5967;SDS011;3010;51.028;4.170;2022-07-05T08:42:26;8.10;;;2.87;;
5967;SDS011;3010;51.028;4.170;2022-07-05T08:44:52;7.78;;;2.90;;
5967;SDS011;3010;51.028;4.170;2022-07-05T08:47:19;8.13;;;3.07;;
5967;SDS011;3010;51.028;4.170;2022-07-05T08:49:45;6.17;;;2.83;;
5967;SDS011;3010;51.028;4.170;2022-07-05T08:52:12;7.13;;;2.80;;
5967;SDS011;3010;51.028;4.170;2022-07-05T08:54:39;4.72;;;2.80;;
5967;SDS011;3010;51.028;4.170;2022-07-05T08:57:05;7.73;;;2.93;;
5967;SDS011;3010;51.028;4.170;2022-07-05T08:59:32;3.97;;;2.70;;
5967;SDS011;3010;51.028;4.170;2022-07-05T09:01:59;4.67;;;2.83;;
5967;SDS011;3010;51.028;4.170;2022-07-05T09:04:25;5.87;;;2.83;;
5967;SDS011;3010;51.028;4.170;2022-07-05T09:06:52;3.77;;;2.50;;
5967;SDS011;3010;51.028;4.170;2022-07-05T09:09:18;9.40;;;2.60;;
5967;SDS011;3010;51.028;4.170;2022-07-05T09:11:48;4.53;;;2.27;;
5967;SDS011;3010;51.028;4.170;2022-07-05T09:14:22;4.57;;;2.87;;
5967;SDS011;3010;51.028;4.170;2022-07-05T09:16:47;3.73;;;2.97;;
5967;SDS011;3010;51.028;4.170;2022-07-05T09:19:14;4.60;;;2.30;;
5967;SDS011;3010;51.028;4.170;2022-07-05T09:21:40;2.40;;;2.20;;
5967;SDS011;3010;51.028;4.170;2022-07-05T09:24:10;1.90;;;1.80;;
5967;SDS011;3010;51.028;4.170;2022-07-05T09:26:40;5.27;;;2.40;;
5967;SDS011;3010;51.028;4.170;2022-07-05T09:29:07;3.67;;;2.37;;
5967;SDS011;3010;51.028;4.170;2022-07-05T09:31:33;4.23;;;2.20;;
5967;SDS011;3010;51.028;4.170;2022-07-05T09:34:20;3.13;;;2.27;;
5967;SDS011;3010;51.028;4.170;2022-07-05T09:39:33;4.53;;;2.53;;
5967;SDS011;3010;51.028;4.170;2022-07-05T09:44:50;4.47;;;1.97;;
5967;SDS011;3010;51.028;4.170;2022-07-05T09:47:16;3.33;;;2.37;;
5967;SDS011;3010;51.028;4.170;2022-07-05T09:49:43;4.87;;;2.47;;
5967;SDS011;3010;51.028;4.170;2022-07-05T09:52:09;5.75;;;2.22;;
5967;SDS011;3010;51.028;4.170;2022-07-05T09:54:35;2.83;;;2.05;;
5967;SDS011;3010;51.028;4.170;2022-07-05T09:57:02;4.53;;;2.00;;
5967;SDS011;3010;51.028;4.170;2022-07-05T09:59:28;2.70;;;2.07;;
5967;SDS011;3010;51.028;4.170;2022-07-05T10:01:55;2.73;;;1.77;;
5967;SDS011;3010;51.028;4.170;2022-07-05T10:04:22;3.62;;;2.12;;
5967;SDS011;3010;51.028;4.170;2022-07-05T10:06:48;3.10;;;1.97;;
5967;SDS011;3010;51.028;4.170;2022-07-05T10:09:15;3.35;;;2.20;;
5967;SDS011;3010;51.028;4.170;2022-07-05T10:11:43;5.57;;;2.30;;
5967;SDS011;3010;51.028;4.170;2022-07-05T10:14:14;2.50;;;2.03;;
5967;SDS011;3010;51.028;4.170;2022-07-05T10:16:37;6.63;;;2.27;;
5967;SDS011;3010;51.028;4.170;2022-07-05T10:19:04;3.50;;;2.43;;
5967;SDS011;3010;51.028;4.170;2022-07-05T10:21:31;2.87;;;2.10;;
5967;SDS011;3010;51.028;4.170;2022-07-05T10:23:57;3.60;;;2.40;;
5967;SDS011;3010;51.028;4.170;2022-07-05T10:26:24;7.37;;;2.50;;
5967;SDS011;3010;51.028;4.170;2022-07-05T10:28:51;2.40;;;2.30;;
5967;SDS011;3010;51.028;4.170;2022-07-05T10:31:17;5.50;;;2.70;;
5967;SDS011;3010;51.028;4.170;2022-07-05T10:33:44;3.83;;;2.53;;
5967;SDS011;3010;51.028;4.170;2022-07-05T10:36:10;3.83;;;2.60;;
5967;SDS011;3010;51.028;4.170;2022-07-05T10:38:41;5.27;;;3.03;;
5967;SDS011;3010;51.028;4.170;2022-07-05T10:41:04;5.30;;;2.90;;
5967;SDS011;3010;51.028;4.170;2022-07-05T10:43:30;4.43;;;2.93;;
5967;SDS011;3010;51.028;4.170;2022-07-05T10:45:57;3.50;;;3.20;;
5967;SDS011;3010;51.028;4.170;2022-07-05T10:48:27;3.80;;;3.27;;
5967;SDS011;3010;51.028;4.170;2022-07-05T10:50:53;4.27;;;3.00;;
5967;SDS011;3010;51.028;4.170;2022-07-05T10:53:22;3.27;;;2.87;;
5967;SDS011;3010;51.028;4.170;2022-07-05T10:58:30;4.13;;;2.10;;
5967;SDS011;3010;51.028;4.170;2022-07-05T11:03:41;2.40;;;2.17;;
5967;SDS011;3010;51.028;4.170;2022-07-05T11:06:20;2.53;;;2.33;;
5967;SDS011;3010;51.028;4.170;2022-07-05T11:11:44;6.57;;;3.10;;
5967;SDS011;3010;51.028;4.170;2022-07-05T11:13:54;2.97;;;2.80;;
5967;SDS011;3010;51.028;4.170;2022-07-05T11:16:21;4.20;;;2.70;;
5967;SDS011;3010;51.028;4.170;2022-07-05T11:19:03;2.30;;;2.20;;
5967;SDS011;3010;51.028;4.170;2022-07-05T11:21:20;1.80;;;1.70;;
5967;SDS011;3010;51.028;4.170;2022-07-05T11:23:46;1.90;;;1.80;;
5967;SDS011;3010;51.028;4.170;2022-07-05T11:26:17;2.53;;;1.62;;
5967;SDS011;3010;51.028;4.170;2022-07-05T11:28:44;2.27;;;2.00;;
5967;SDS011;3010;51.028;4.170;2022-07-05T11:31:13;2.07;;;1.97;;
5967;SDS011;3010;51.028;4.170;2022-07-05T11:33:42;3.70;;;2.20;;
5967;SDS011;3010;51.028;4.170;2022-07-05T11:36:24;4.43;;;2.00;;
5967;SDS011;3010;51.028;4.170;2022-07-05T11:39:27;3.30;;;1.70;;
5967;SDS011;3010;51.028;4.170;2022-07-05T11:41:44;3.27;;;1.93;;
5967;SDS011;3010;51.028;4.170;2022-07-05T11:44:10;3.47;;;2.40;;
5967;SDS011;3010;51.028;4.170;2022-07-05T11:46:36;2.30;;;2.20;;
5967;SDS011;3010;51.028;4.170;2022-07-05T11:49:03;2.40;;;2.10;;
5967;SDS011;3010;51.028;4.170;2022-07-05T11:51:29;2.53;;;1.90;;
5967;SDS011;3010;51.028;4.170;2022-07-05T11:53:56;3.73;;;1.40;;
5967;SDS011;3010;51.028;4.170;2022-07-05T11:56:23;1.70;;;1.58;;
5967;SDS011;3010;51.028;4.170;2022-07-05T11:58:49;2.60;;;1.80;;
5967;SDS011;3010;51.028;4.170;2022-07-05T12:01:16;1.80;;;1.70;;
5967;SDS011;3010;51.028;4.170;2022-07-05T12:03:52;3.60;;;1.70;;
5967;SDS011;3010;51.028;4.170;2022-07-05T12:06:10;2.65;;;1.77;;
5967;SDS011;3010;51.028;4.170;2022-07-05T12:08:35;2.57;;;1.40;;
5967;SDS011;3010;51.028;4.170;2022-07-05T12:11:02;2.10;;;1.40;;
5967;SDS011;3010;51.028;4.170;2022-07-05T12:13:48;1.60;;;1.48;;
5967;SDS011;3010;51.028;4.170;2022-07-05T12:16:14;3.40;;;1.40;;
5967;SDS011;3010;51.028;4.170;2022-07-05T12:18:50;2.20;;;1.70;;
5967;SDS011;3010;51.028;4.170;2022-07-05T12:21:16;3.07;;;1.40;;
5967;SDS011;3010;51.028;4.170;2022-07-05T12:23:43;2.40;;;1.23;;
5967;SDS011;3010;51.028;4.170;2022-07-05T12:26:12;1.93;;;1.40;;
5967;SDS011;3010;51.028;4.170;2022-07-05T12:28:42;1.63;;;1.50;;
5967;SDS011;3010;51.028;4.170;2022-07-05T12:31:17;3.27;;;1.50;;
5967;SDS011;3010;51.028;4.170;2022-07-05T12:33:47;2.17;;;1.40;;
5967;SDS011;3010;51.028;4.170;2022-07-05T12:36:18;2.33;;;1.60;;
5967;SDS011;3010;51.028;4.170;2022-07-05T12:38:40;1.65;;;1.23;;
5967;SDS011;3010;51.028;4.170;2022-07-05T12:41:07;5.43;;;1.80;;
5967;SDS011;3010;51.028;4.170;2022-07-05T12:43:35;2.37;;;1.50;;
5967;SDS011;3010;51.028;4.170;2022-07-05T12:46:01;3.23;;;1.70;;
5967;SDS011;3010;51.028;4.170;2022-07-05T12:48:33;2.30;;;1.40;;
5967;SDS011;3010;51.028;4.170;2022-07-05T12:50:59;1.67;;;1.50;;
5967;SDS011;3010;51.028;4.170;2022-07-05T12:53:25;2.03;;;1.80;;
5967;SDS011;3010;51.028;4.170;2022-07-05T12:56:11;2.70;;;1.67;;
5967;SDS011;3010;51.028;4.170;2022-07-05T12:58:55;2.72;;;1.40;;
5967;SDS011;3010;51.028;4.170;2022-07-05T13:01:31;3.40;;;1.50;;
5967;SDS011;3010;51.028;4.170;2022-07-05T13:04:09;1.73;;;1.35;;
5967;SDS011;3010;51.028;4.170;2022-07-05T13:06:51;2.50;;;1.20;;
5967;SDS011;3010;51.028;4.170;2022-07-05T13:12:09;1.67;;;1.50;;
5967;SDS011;3010;51.028;4.170;2022-07-05T13:14:34;1.70;;;1.60;;
5967;SDS011;3010;51.028;4.170;2022-07-05T13:17:01;1.85;;;1.20;;
5967;SDS011;3010;51.028;4.170;2022-07-05T13:19:29;2.40;;;1.30;;
5967;SDS011;3010;51.028;4.170;2022-07-05T13:21:55;1.47;;;1.30;;
5967;SDS011;3010;51.028;4.170;2022-07-05T13:24:22;1.27;;;1.17;;
5967;SDS011;3010;51.028;4.170;2022-07-05T13:26:49;5.93;;;1.30;;
5967;SDS011;3010;51.028;4.170;2022-07-05T13:29:18;1.20;;;1.17;;
5967;SDS011;3010;51.028;4.170;2022-07-05T13:31:42;1.70;;;1.40;;
5967;SDS011;3010;51.028;4.170;2022-07-05T13:34:08;4.30;;;1.50;;
5967;SDS011;3010;51.028;4.170;2022-07-05T13:36:35;2.93;;;1.10;;
5967;SDS011;3010;51.028;4.170;2022-07-05T13:39:02;2.87;;;1.37;;
5967;SDS011;3010;51.028;4.170;2022-07-05T13:41:28;3.20;;;1.37;;
5967;SDS011;3010;51.028;4.170;2022-07-05T13:43:55;4.40;;;1.60;;
5967;SDS011;3010;51.028;4.170;2022-07-05T13:46:21;6.30;;;1.57;;
5967;SDS011;3010;51.028;4.170;2022-07-05T13:48:48;1.30;;;1.10;;
5967;SDS011;3010;51.028;4.170;2022-07-05T13:51:14;2.20;;;1.43;;
5967;SDS011;3010;51.028;4.170;2022-07-05T13:53:41;3.27;;;1.37;;
5967;SDS011;3010;51.028;4.170;2022-07-05T13:56:08;1.30;;;1.20;;
5967;SDS011;3010;51.028;4.170;2022-07-05T13:58:34;7.90;;;1.60;;
5967;SDS011;3010;51.028;4.170;2022-07-05T14:01:01;2.40;;;1.10;;
5967;SDS011;3010;51.028;4.170;2022-07-05T14:03:27;5.17;;;1.40;;
5967;SDS011;3010;51.028;4.170;2022-07-05T14:05:54;1.40;;;1.30;;
5967;SDS011;3010;51.028;4.170;2022-07-05T14:08:21;1.40;;;1.30;;
5967;SDS011;3010;51.028;4.170;2022-07-05T14:10:51;1.93;;;1.80;;
5967;SDS011;3010;51.028;4.170;2022-07-05T14:13:17;2.50;;;1.63;;
5967;SDS011;3010;51.028;4.170;2022-07-05T14:15:49;1.40;;;1.40;;
5967;SDS011;3010;51.028;4.170;2022-07-05T14:18:15;2.87;;;1.40;;
5967;SDS011;3010;51.028;4.170;2022-07-05T14:20:42;1.50;;;1.30;;
5967;SDS011;3010;51.028;4.170;2022-07-05T14:23:08;2.17;;;1.37;;
5967;SDS011;3010;51.028;4.170;2022-07-05T14:25:35;2.77;;;1.47;;
5967;SDS011;3010;51.028;4.170;2022-07-05T14:28:02;2.20;;;1.30;;
5967;SDS011;3010;51.028;4.170;2022-07-05T14:30:28;1.50;;;1.40;;
5967;SDS011;3010;51.028;4.170;2022-07-05T14:32:55;1.77;;;1.67;;
5967;SDS011;3010;51.028;4.170;2022-07-05T14:35:21;1.50;;;1.40;;
5967;SDS011;3010;51.028;4.170;2022-07-05T14:37:48;1.33;;;1.20;;
5967;SDS011;3010;51.028;4.170;2022-07-05T14:40:14;1.85;;;1.30;;
5967;SDS011;3010;51.028;4.170;2022-07-05T14:42:41;1.40;;;1.30;;
5967;SDS011;3010;51.028;4.170;2022-07-05T14:45:07;1.17;;;1.17;;
5967;SDS011;3010;51.028;4.170;2022-07-05T14:47:34;1.30;;;1.27;;
5967;SDS011;3010;51.028;4.170;2022-07-05T14:50:01;1.07;;;1.07;;
5967;SDS011;3010;51.028;4.170;2022-07-05T14:52:27;0.97;;;0.97;;
5967;SDS011;3010;51.028;4.170;2022-07-05T14:54:54;1.50;;;1.00;;
5967;SDS011;3010;51.028;4.170;2022-07-05T14:57:20;2.00;;;1.07;;
5967;SDS011;3010;51.028;4.170;2022-07-05T14:59:47;1.10;;;1.07;;
5967;SDS011;3010;51.028;4.170;2022-07-05T15:02:14;2.00;;;1.00;;
5967;SDS011;3010;51.028;4.170;2022-07-05T15:04:40;1.60;;;1.00;;
5967;SDS011;3010;51.028;4.170;2022-07-05T15:07:07;1.03;;;1.03;;
5967;SDS011;3010;51.028;4.170;2022-07-05T15:09:33;1.20;;;1.20;;
5967;SDS011;3010;51.028;4.170;2022-07-05T15:12:00;0.90;;;0.90;;
5967;SDS011;3010;51.028;4.170;2022-07-05T15:14:27;1.50;;;1.00;;
5967;SDS011;3010;51.028;4.170;2022-07-05T15:16:54;3.73;;;1.30;;
5967;SDS011;3010;51.028;4.170;2022-07-05T15:19:22;1.20;;;1.10;;
5967;SDS011;3010;51.028;4.170;2022-07-05T15:21:49;3.07;;;1.10;;
5967;SDS011;3010;51.028;4.170;2022-07-05T15:24:15;1.00;;;1.00;;
5967;SDS011;3010;51.028;4.170;2022-07-05T15:26:42;1.47;;;1.20;;
5967;SDS011;3010;51.028;4.170;2022-07-05T15:29:09;1.62;;;1.20;;
5967;SDS011;3010;51.028;4.170;2022-07-05T15:31:51;1.53;;;1.10;;
5967;SDS011;3010;51.028;4.170;2022-07-05T15:34:05;2.30;;;1.00;;